Time;durP1;ratioP1;P1;durP2;ratioP2;P2;SDS_P1;SDS_P2;PMS_P1;PMS_P2;Temp;Humidity;BMP_temperature;BMP_pressure;BME280_temperature;BME280_humidity;BME280_pressure;Samples;Min_cycle;Max_cycle;Signal;HPM_P1;HPM_P2
2023/09/02 04:22:32;;;;;;;3.90;2.28;;;;;;;14.71;100.00;100412.16;5089560;28;20837;-69
2023/09/02 04:24:58;;;;;;;4.95;2.58;;;;;;;14.77;100.00;100406.84;5089515;28;20062;-69
2023/09/02 04:27:24;;;;;;;5.97;2.60;;;;;;;14.77;100.00;100401.47;5088049;28;20047;-70
2023/09/02 04:29:50;;;;;;;3.75;2.40;;;;;;;14.76;100.00;100405.19;5087903;28;20540;-70
2023/09/02 04:32:15;;;;;;;6.60;2.40;;;;;;;14.80;100.00;100406.47;5088080;28;20032;-70
2023/09/02 04:34:42;;;;;;;5.35;2.47;;;;;;;14.77;100.00;100406.84;5088004;28;20036;-68
2023/09/02 04:37:08;;;;;;;4.60;2.30;;;;;;;14.71;100.00;100410.28;5087885;28;20127;-71
2023/09/02 04:39:34;;;;;;;3.50;2.17;;;;;;;14.72;100.00;100413.81;5087635;28;20032;-71
2023/09/02 04:41:59;;;;;;;2.85;2.10;;;;;;;14.70;100.00;100408.66;5087752;28;20514;-69
2023/09/02 04:44:25;;;;;;;3.70;1.98;;;;;;;14.66;100.00;100415.41;5088017;28;20132;-71
2023/09/02 04:46:50;;;;;;;3.30;1.65;;;;;;;14.65;100.00;100414.59;5087671;28;20089;-69
2023/09/02 04:49:16;;;;;;;3.00;1.77;;;;;;;14.69;100.00;100407.00;5087461;28;20043;-69
2023/09/02 04:51:41;;;;;;;6.05;1.95;;;;;;;14.76;100.00;100404.34;5088939;28;20376;-69
2023/09/02 04:54:07;;;;;;;5.38;2.03;;;;;;;14.71;100.00;100407.63;5088839;28;20112;-68
2023/09/02 04:56:32;;;;;;;4.28;1.77;;;;;;;14.70;100.00;100402.47;5087548;28;20040;-70
2023/09/02 04:58:57;;;;;;;4.40;1.90;;;;;;;14.66;100.00;100415.41;5087367;28;20117;-70
2023/09/02 05:01:25;;;;;;;6.57;1.90;;;;;;;14.67;100.00;100411.72;5087263;28;20032;-70
2023/09/02 05:03:56;;;;;;;8.25;1.77;;;;;;;14.75;100.00;100416.94;5087424;28;20032;-71
2023/09/02 05:06:22;;;;;;;3.22;1.88;;;;;;;14.68;100.00;100412.56;5088594;28;20047;-71
2023/09/02 05:08:54;;;;;;;3.40;1.90;;;;;;;14.68;100.00;100408.03;5087212;28;20037;-70
2023/09/02 05:11:21;;;;;;;2.72;1.88;;;;;;;14.71;100.00;100414.84;5087073;28;20063;-70
2023/09/02 05:13:48;;;;;;;2.85;1.80;;;;;;;14.71;100.00;100412.97;5087428;28;20418;-70
2023/09/02 05:16:13;;;;;;;4.88;1.70;;;;;;;14.71;100.00;100415.66;5086333;28;20402;-69
2023/09/02 05:18:39;;;;;;;3.00;1.48;;;;;;;14.73;100.00;100413.59;5089394;28;20039;-71
2023/09/02 05:21:04;;;;;;;3.85;1.80;;;;;;;14.78;100.00;100416.53;5086315;28;20039;-70
2023/09/02 05:23:29;;;;;;;4.03;1.50;;;;;;;14.79;100.00;100414.66;5088017;28;20144;-70
2023/09/02 05:25:56;;;;;;;3.15;1.73;;;;;;;14.88;100.00;100411.66;5087044;28;20119;-63
2023/09/02 05:28:23;;;;;;;3.97;2.22;;;;;;;14.90;100.00;100416.81;5087256;28;20059;-63
2023/09/02 05:30:51;;;;;;;3.13;1.90;;;;;;;14.96;100.00;100420.56;5086631;28;20074;-63
2023/09/02 05:33:17;;;;;;;6.25;2.05;;;;;;;15.00;100.00;100419.16;5077998;28;20040;-63
2023/09/02 05:35:45;;;;;;;7.05;2.10;;;;;;;15.00;100.00;100419.16;5074463;28;20074;-63
2023/09/02 05:38:11;;;;;;;3.72;1.85;;;;;;;15.07;100.00;100420.03;5068609;28;20066;-62
2023/09/02 05:40:41;;;;;;;3.38;2.22;;;;;;;15.12;100.00;100431.78;5064299;28;20036;-63
2023/09/02 05:43:07;;;;;;;3.08;2.03;;;;;;;15.13;100.00;100430.78;5057101;28;20033;-63
2023/09/02 05:45:33;;;;;;;5.35;2.63;;;;;;;15.11;100.00;100435.50;5054353;28;20488;-63
2023/09/02 05:48:00;;;;;;;5.78;2.65;;;;;;;15.19;100.00;100439.88;5054348;28;20037;-62
2023/09/02 05:50:26;;;;;;;4.55;2.85;;;;;;;15.24;100.00;100439.28;5054112;28;20484;-62
2023/09/02 05:52:51;;;;;;;4.22;1.67;;;;;;;15.28;100.00;100441.38;5054305;28;20040;-63
2023/09/02 05:55:17;;;;;;;2.45;1.60;;;;;;;15.32;100.00;100447.16;5054187;28;20071;-63
2023/09/02 05:57:42;;;;;;;7.07;1.92;;;;;;;15.37;100.00;100450.06;5054248;28;20072;-63
2023/09/02 06:00:08;;;;;;;2.20;1.40;;;;;;;15.46;100.00;100440.84;5053883;28;20464;-62
2023/09/02 06:02:42;;;;;;;2.78;1.75;;;;;;;15.52;100.00;100442.72;5054476;28;20055;-63
2023/09/02 06:05:08;;;;;;;2.58;1.25;;;;;;;15.57;100.00;100442.94;5054142;28;20116;-62
2023/09/02 06:07:33;;;;;;;2.13;1.40;;;;;;;15.63;100.00;100446.72;5054048;28;20530;-63
2023/09/02 06:09:58;;;;;;;2.58;1.55;;;;;;;15.68;100.00;100452.31;5053699;28;20056;-63
2023/09/02 06:12:24;;;;;;;1.77;1.27;;;;;;;15.73;100.00;100447.16;5053957;28;20139;-63
2023/09/02 06:14:49;;;;;;;5.22;1.75;;;;;;;15.80;100.00;100455.25;5053880;28;20490;-63
2023/09/02 06:17:15;;;;;;;4.40;1.58;;;;;;;15.88;100.00;100447.00;5053793;28;20502;-63
2023/09/02 06:19:41;;;;;;;4.50;1.60;;;;;;;15.91;100.00;100438.50;5053555;28;20037;-63
2023/09/02 06:22:06;;;;;;;3.67;1.50;;;;;;;15.95;100.00;100443.28;5053716;28;20143;-63
2023/09/02 06:24:31;;;;;;;3.17;1.85;;;;;;;16.04;100.00;100446.63;5053711;28;20140;-62
2023/09/02 06:27:03;;;;;;;3.72;1.45;;;;;;;16.09;100.00;100446.81;5056645;28;20504;-63
2023/09/02 06:29:31;;;;;;;4.10;1.98;;;;;;;16.13;100.00;100452.63;5073196;28;20499;-62
2023/09/02 06:31:56;;;;;;;;;;;;;;;16.20;100.00;100458.84;5073533;28;20494;-62
2023/09/02 06:34:23;;;;;;;4.40;1.60;;;;;;;16.26;100.00;100461.53;5073559;28;19926;-63
2023/09/02 06:36:48;;;;;;;4.20;1.98;;;;;;;16.32;100.00;100465.25;5073419;28;20033;-62
2023/09/02 06:39:13;;;;;;;3.53;1.85;;;;;;;16.39;100.00;100465.28;5073179;28;20045;-62
2023/09/02 06:41:39;;;;;;;3.63;1.77;;;;;;;16.45;100.00;100475.19;5073381;28;20040;-62
2023/09/02 06:44:04;;;;;;;4.43;1.85;;;;;;;16.51;100.00;100466.31;5072455;28;20067;-63
2023/09/02 06:46:33;;;;;;;4.15;1.80;;;;;;;16.58;100.00;100471.69;5073290;28;20052;-63
2023/09/02 06:48:59;;;;;;;5.10;2.25;;;;;;;16.64;100.00;100478.94;5073266;28;20115;-62
2023/09/02 06:51:24;;;;;;;4.60;1.73;;;;;;;16.72;100.00;100478.75;5072837;28;20056;-62
2023/09/02 06:53:50;;;;;;;5.10;1.70;;;;;;;16.78;100.00;100488.69;5073149;28;20037;-62
2023/09/02 06:56:15;;;;;;;7.13;1.95;;;;;;;16.86;100.00;100496.53;5073077;28;20036;-63
2023/09/02 06:58:42;;;;;;;3.97;1.60;;;;;;;16.94;100.00;100493.63;5072941;28;20487;-63
2023/09/02 07:01:18;;;;;;;4.15;1.55;;;;;;;17.00;100.00;100494.66;5072855;28;20029;-63
2023/09/02 07:03:46;;;;;;;3.58;1.60;;;;;;;17.08;100.00;100497.13;5072993;28;20112;-62
2023/09/02 07:06:14;;;;;;;5.05;1.70;;;;;;;17.16;100.00;100496.91;5072811;28;20062;-63
2023/09/02 07:08:41;;;;;;;1.92;1.48;;;;;;;17.26;100.00;100499.97;5072743;28;20044;-63
2023/09/02 07:11:09;;;;;;;2.72;1.80;;;;;;;17.35;100.00;100511.38;5072603;28;20071;-63
2023/09/02 07:13:34;;;;;;;3.25;1.65;;;;;;;17.42;100.00;100508.66;5072822;28;20455;-63
2023/09/02 07:16:01;;;;;;;3.50;1.73;;;;;;;17.53;100.00;100503.41;5072629;28;20079;-63
2023/09/02 07:18:27;;;;;;;1.88;1.33;;;;;;;17.62;100.00;100507.53;5072649;28;20036;-63
2023/09/02 07:21:00;;;;;;;2.33;1.42;;;;;;;17.71;100.00;100515.38;5072435;28;20662;-63
2023/09/02 07:23:26;;;;;;;2.22;1.52;;;;;;;17.76;100.00;100508.34;5072614;28;20036;-63
2023/09/02 07:25:51;;;;;;;3.83;1.80;;;;;;;17.91;100.00;100518.84;5072477;28;20037;-63
2023/09/02 07:28:17;;;;;;;3.20;1.70;;;;;;;18.01;100.00;100521.91;5072463;28;20094;-63
2023/09/02 07:30:42;;;;;;;3.85;2.30;;;;;;;18.12;100.00;100515.81;5072120;28;20032;-63
2023/09/02 07:33:08;;;;;;;2.65;1.80;;;;;;;18.16;100.00;100519.75;5072360;28;20048;-63
2023/09/02 07:35:36;;;;;;;2.00;1.48;;;;;;;18.24;100.00;100517.84;5072306;28;20044;-63
2023/09/02 07:38:04;;;;;;;3.08;1.45;;;;;;;18.28;100.00;100516.38;5072297;28;20040;-63
2023/09/02 07:40:30;;;;;;;3.05;1.50;;;;;;;18.34;100.00;100515.50;5072021;28;20111;-63
2023/09/02 07:42:57;;;;;;;2.30;1.50;;;;;;;18.42;100.00;100528.72;5072193;28;20127;-63
2023/09/02 07:45:23;;;;;;;2.97;1.35;;;;;;;18.45;100.00;100533.66;5072076;28;20036;-63
2023/09/02 07:47:48;;;;;;;1.73;1.42;;;;;;;18.44;100.00;100526.63;5072102;28;20033;-63
2023/09/02 07:50:13;;;;;;;2.42;1.30;;;;;;;18.52;100.00;100539.00;5071944;28;20515;-63
2023/09/02 07:52:39;;;;;;;3.15;1.23;;;;;;;18.55;100.00;100542.13;5072139;28;20036;-63
2023/09/02 07:55:04;;;;;;;2.10;1.33;;;;;;;18.59;100.00;100543.34;5071778;28;20044;-63
2023/09/02 07:57:30;;;;;;;2.65;1.65;;;;;;;18.62;100.00;100548.28;5072088;28;20036;-63
2023/09/02 07:59:56;;;;;;;3.58;2.03;;;;;;;18.70;100.00;100539.94;5071776;28;20448;-63
2023/09/02 08:02:22;;;;;;;2.90;1.70;;;;;;;18.72;100.00;100539.75;5072013;28;20032;-62
2023/09/02 08:04:47;;;;;;;2.45;1.65;;;;;;;18.90;100.00;100550.59;5071678;28;20040;-62
2023/09/02 08:07:13;;;;;;;3.35;1.60;;;;;;;18.95;100.00;100542.66;5072047;28;20051;-63
2023/09/02 08:09:38;;;;;;;2.08;1.33;;;;;;;19.05;100.00;100541.34;5071720;28;20040;-63
2023/09/02 08:12:04;;;;;;;2.30;1.40;;;;;;;19.11;100.00;100535.88;5071938;28;20052;-63
2023/09/02 08:14:29;;;;;;;3.35;1.35;;;;;;;19.15;100.00;100539.78;5071881;28;20032;-63
2023/09/02 08:16:55;;;;;;;3.20;1.23;;;;;;;19.20;100.00;100548.03;5071687;28;20044;-63
2023/09/02 08:19:20;;;;;;;3.33;1.52;;;;;;;19.22;100.00;100539.72;5071557;28;20043;-61
2023/09/02 08:21:45;;;;;;;3.35;1.13;;;;;;;19.24;100.00;100543.03;5071853;28;20033;-62
2023/09/02 08:24:11;;;;;;;2.15;1.13;;;;;;;19.28;100.00;100540.69;5071815;28;20170;-62
2023/09/02 08:26:36;;;;;;;1.30;1.08;;;;;;;19.35;100.00;100542.28;5071764;28;20029;-62
2023/09/02 08:29:01;;;;;;;2.25;1.17;;;;;;;19.53;100.00;100549.56;5071692;28;20060;-62
2023/09/02 08:31:27;;;;;;;4.18;1.40;;;;;;;19.69;100.00;100558.97;5071327;28;20398;-63
2023/09/02 08:33:52;;;;;;;3.72;1.20;;;;;;;19.71;100.00;100556.91;5071660;28;20119;-62
2023/09/02 08:36:18;;;;;;;1.85;1.30;;;;;;;19.77;100.00;100553.28;5071629;28;20033;-62
2023/09/02 08:38:43;;;;;;;2.80;1.33;;;;;;;19.76;100.00;100546.25;5071646;28;20229;-63
2023/09/02 08:41:16;;;;;;;2.75;1.38;;;;;;;19.89;100.00;100558.78;5071416;28;20128;-63
2023/09/02 08:43:42;;;;;;;3.47;1.40;;;;;;;19.98;100.00;100562.81;5071556;28;20438;-62
2023/09/02 08:46:10;;;;;;;4.13;1.30;;;;;;;19.96;100.00;100551.41;5071362;28;20513;-62
2023/09/02 08:48:41;;;;;;;3.55;1.63;;;;;;;20.04;100.00;100557.31;5071528;28;20463;-61
2023/09/02 08:51:08;;;;;;;2.83;1.52;;;;;;;20.32;100.00;100559.44;5071155;28;20039;-61
2023/09/02 08:53:34;;;;;;;;;;;;;;;20.48;100.00;100551.75;5071891;28;20064;-62
2023/09/02 08:56:00;;;;;;;2.22;1.30;;;;;;;20.54;100.00;100558.97;5071441;28;19963;-62
2023/09/02 08:58:27;;;;;;;1.45;1.17;;;;;;;20.47;100.00;100564.44;5071397;28;20041;-63
2023/09/02 09:00:53;;;;;;;4.57;1.30;;;;;;;20.71;100.00;100561.81;5071167;28;20028;-63
2023/09/02 09:03:19;;;;;;;3.03;1.60;;;;;;;20.91;100.00;100566.91;5071464;28;20383;-62
2023/09/02 09:05:46;;;;;;;2.67;1.40;;;;;;;21.11;99.28;100570.09;5071314;28;20534;-62
2023/09/02 09:08:13;;;;;;;2.85;1.50;;;;;;;21.05;99.20;100573.75;5073288;28;20036;-62
2023/09/02 09:10:39;;;;;;;2.15;1.38;;;;;;;21.03;96.83;100573.97;5074845;28;20041;-62
2023/09/02 09:13:07;;;;;;;3.10;1.35;;;;;;;21.04;96.64;100572.91;5075097;28;20066;-63
2023/09/02 09:15:35;;;;;;;4.05;1.50;;;;;;;21.27;98.17;100574.00;5074817;28;20043;-63
2023/09/02 09:18:03;;;;;;;1.60;1.13;;;;;;;21.37;97.62;100577.78;5074952;28;20502;-63
2023/09/02 09:20:30;;;;;;;2.00;1.27;;;;;;;21.71;97.15;100566.31;5074637;28;20436;-62
2023/09/02 09:22:55;;;;;;;3.87;1.47;;;;;;;21.85;92.26;100568.53;5074927;28;20468;-63
2023/09/02 09:25:21;;;;;;;2.22;1.17;;;;;;;22.15;93.89;100567.53;5074799;28;20329;-63
2023/09/02 09:27:48;;;;;;;2.97;1.38;;;;;;;22.15;91.07;100567.53;5074779;28;20043;-63
2023/09/02 09:30:30;;;;;;;2.15;1.42;;;;;;;22.19;92.85;100560.56;5074518;28;20036;-62
2023/09/02 09:33:04;;;;;;;4.25;1.40;;;;;;;22.27;92.47;100559.34;5074722;28;20124;-63
2023/09/02 09:35:30;;;;;;;1.67;1.25;;;;;;;22.37;91.26;100565.78;5074552;28;20062;-62
2023/09/02 09:37:56;;;;;;;2.25;1.30;;;;;;;22.51;88.64;100568.22;5074651;28;20021;-63
2023/09/02 09:40:33;;;;;;;3.63;1.30;;;;;;;22.72;87.96;100562.06;5074359;28;20045;-63
2023/09/02 09:42:59;;;;;;;1.95;1.30;;;;;;;22.77;84.74;100562.16;5074524;28;20563;-63
2023/09/02 09:45:25;;;;;;;2.92;1.25;;;;;;;22.85;84.74;100556.31;5074468;28;20491;-63
2023/09/02 09:47:51;;;;;;;1.58;1.20;;;;;;;23.07;84.52;100566.44;5074443;28;20043;-63
2023/09/02 09:50:17;;;;;;;2.10;1.15;;;;;;;23.17;84.39;100561.19;5074220;28;20071;-63
2023/09/02 09:53:01;;;;;;;1.90;0.90;;;;;;;23.40;84.12;100560.97;5074380;28;20070;-62
2023/09/02 09:55:29;;;;;;;5.90;1.30;;;;;;;23.61;81.91;100561.28;5074310;28;20119;-63
2023/09/02 09:57:55;;;;;;;4.32;1.23;;;;;;;23.85;81.55;100562.69;5074304;28;20444;-62
2023/09/02 10:00:21;;;;;;;1.50;1.10;;;;;;;24.14;78.11;100566.03;5074123;28;20037;-62
2023/09/02 10:02:52;;;;;;;1.58;1.17;;;;;;;24.44;76.95;100562.81;5068111;28;20106;-62
2023/09/02 10:05:30;;;;;;;3.42;1.38;;;;;;;24.73;74.55;100566.09;5062748;28;20560;-63
2023/09/02 10:07:59;;;;;;;1.90;1.20;;;;;;;25.26;71.14;100563.53;5064287;28;20037;-62
2023/09/02 10:10:32;;;;;;;3.33;1.40;;;;;;;25.88;66.54;100568.25;5062458;28;20100;-62
2023/09/02 10:12:58;;;;;;;1.60;1.10;;;;;;;26.28;63.18;100559.38;5062750;28;20043;-64
2023/09/02 10:15:26;;;;;;;1.00;0.80;;;;;;;26.69;59.80;100554.81;5062545;28;20025;-63
2023/09/02 10:17:57;;;;;;;5.38;1.50;;;;;;;27.05;59.56;100558.38;5063440;28;20388;-63
2023/09/02 10:20:31;;;;;;;2.28;1.42;;;;;;;27.41;58.59;100555.59;5064162;28;20047;-63
2023/09/02 10:23:04;;;;;;;1.42;1.17;;;;;;;27.60;55.70;100558.53;5064051;28;20044;-63
2023/09/02 10:25:38;;;;;;;2.30;1.30;;;;;;;27.88;54.88;100562.56;5063171;28;20082;-62
2023/09/02 10:28:05;;;;;;;1.33;0.93;;;;;;;28.06;54.66;100561.13;5062325;28;20463;-63
2023/09/02 10:30:36;;;;;;;3.20;1.45;;;;;;;28.46;52.90;100562.00;5063109;28;20041;-63
2023/09/02 10:33:14;;;;;;;1.65;1.00;;;;;;;28.46;52.23;100570.22;5065332;28;20029;-63
2023/09/02 10:35:50;;;;;;;4.10;1.20;;;;;;;28.95;51.00;100559.16;5062177;28;20040;-62
2023/09/02 10:38:20;;;;;;;2.58;1.00;;;;;;;29.61;49.30;100564.00;5062027;28;20506;-62
2023/09/02 10:40:56;;;;;;;2.22;1.10;;;;;;;30.02;48.25;100560.75;5054950;28;20037;-64
2023/09/02 10:43:24;;;;;;;0.80;0.80;;;;;;;30.14;48.40;100549.34;5053539;28;20408;-62
2023/09/02 10:45:49;;;;;;;2.17;0.98;;;;;;;30.48;47.60;100551.88;5053472;28;20428;-62
2023/09/02 10:48:15;;;;;;;1.87;1.20;;;;;;;30.58;47.80;100543.44;5064103;28;20093;-61
2023/09/02 10:50:41;;;;;;;2.50;0.97;;;;;;;31.00;45.20;100537.00;5072966;28;20140;-62
2023/09/02 10:53:07;;;;;;;1.80;1.20;;;;;;;30.89;46.34;100535.53;5073203;28;20115;-62
2023/09/02 10:55:32;;;;;;;1.77;1.00;;;;;;;30.78;45.98;100532.16;5073132;28;20052;-63
2023/09/02 10:57:59;;;;;;;1.40;1.03;;;;;;;31.58;44.35;100536.47;5073047;28;20473;-65
2023/09/02 11:00:26;;;;;;;1.65;1.23;;;;;;;31.51;41.99;100529.75;5072817;28;20523;-62
2023/09/02 11:02:57;;;;;;;2.90;1.40;;;;;;;31.43;43.47;100535.94;5072986;28;20047;-63
2023/09/02 11:05:24;;;;;;;5.85;1.30;;;;;;;31.76;43.66;100528.41;5072883;28;20098;-61
2023/09/02 11:07:49;;;;;;;1.30;0.95;;;;;;;32.32;41.90;100532.66;5072921;28;20028;-63
2023/09/02 11:10:17;;;;;;;2.57;0.83;;;;;;;32.50;41.19;100533.66;5072681;28;20040;-63
2023/09/02 11:13:00;;;;;;;2.15;1.10;;;;;;;33.00;40.02;100528.81;5072696;28;20041;-62
2023/09/02 11:15:29;;;;;;;2.28;0.98;;;;;;;33.26;40.18;100530.91;5072670;28;20129;-61
2023/09/02 11:17:55;;;;;;;1.83;1.30;;;;;;;33.63;38.78;100530.38;5072642;28;20407;-62
2023/09/02 11:20:28;;;;;;;1.20;0.90;;;;;;;33.70;38.65;100524.38;5072397;28;20040;-61
2023/09/02 11:22:56;;;;;;;2.53;0.90;;;;;;;33.56;37.89;100527.28;5072574;28;20039;-63
2023/09/02 11:25:37;;;;;;;1.98;1.00;;;;;;;34.16;37.07;100532.13;5072420;28;20135;-63
2023/09/02 11:28:26;;;;;;;3.03;1.60;;;;;;;34.13;37.30;100530.03;5070723;28;20062;-62
2023/09/02 11:31:04;;;;;;;0.90;0.70;;;;;;;34.14;36.00;100526.13;5071389;28;20056;-62
2023/09/02 11:33:30;;;;;;;5.72;1.67;;;;;;;34.47;37.87;100540.28;5072458;28;20037;-57
2023/09/02 11:36:07;;;;;;;2.55;1.23;;;;;;;34.13;37.78;100530.03;5072370;28;20025;-57
2023/09/02 11:38:34;;;;;;;5.50;1.10;;;;;;;33.97;36.55;100532.47;5072381;28;20098;-55
2023/09/02 11:41:00;;;;;;;3.92;1.60;;;;;;;34.08;36.36;100532.94;5072007;28;20028;-66
2023/09/02 11:43:28;;;;;;;1.52;0.82;;;;;;;34.72;35.60;100530.34;5072220;28;20073;-67
2023/09/02 11:45:54;;;;;;;1.42;0.98;;;;;;;34.67;34.58;100546.28;5072128;28;20048;-66
2023/09/02 11:48:19;;;;;;;1.77;0.87;;;;;;;34.91;33.95;100537.47;5071149;28;20040;-67
2023/09/02 11:50:44;;;;;;;4.93;1.30;;;;;;;34.96;34.26;100545.63;5071920;28;20174;-67
2023/09/02 11:53:10;;;;;;;1.67;1.07;;;;;;;35.19;34.11;100544.22;5072239;28;20078;-66
2023/09/02 11:55:36;;;;;;;2.73;1.00;;;;;;;35.55;33.16;100554.03;5072106;28;20032;-66
2023/09/02 11:58:10;;;;;;;3.20;1.00;;;;;;;35.16;33.17;100544.91;5072067;28;20041;-66
2023/09/02 12:00:42;;;;;;;3.25;1.17;;;;;;;34.93;33.91;100541.53;5071732;28;20033;-66
2023/09/02 12:03:07;;;;;;;1.77;0.98;;;;;;;34.99;33.84;100533.88;5072110;28;20040;-67
2023/09/02 12:05:37;;;;;;;0.80;0.80;;;;;;;35.15;33.79;100534.97;5072017;28;20035;-66
2023/09/02 12:08:04;;;;;;;1.40;0.98;;;;;;;35.57;33.30;100524.03;5061185;28;20078;-65
2023/09/02 12:10:30;;;;;;;2.10;1.00;;;;;;;34.81;34.08;100530.31;5029035;28;20385;-66
2023/09/02 12:12:56;;;;;;;1.15;0.80;;;;;;;34.40;34.93;100536.34;5052037;28;20503;-66
2023/09/02 12:15:22;;;;;;;1.40;0.93;;;;;;;34.88;34.25;100535.34;5059638;28;20036;-66
2023/09/02 12:17:48;;;;;;;1.07;0.90;;;;;;;35.35;32.71;100542.53;5060373;28;20021;-66
2023/09/02 12:20:15;;;;;;;2.15;1.10;;;;;;;35.66;32.12;100533.09;5064445;28;20392;-67
2023/09/02 12:22:42;;;;;;;1.38;1.10;;;;;;;35.76;33.29;100545.78;5062544;28;20032;-66
2023/09/02 12:25:17;;;;;;;3.67;1.20;;;;;;;35.09;32.20;100541.84;5062946;28;20372;-66
2023/09/02 12:27:42;;;;;;;1.10;0.95;;;;;;;34.66;33.77;100545.47;5063256;28;20480;-67
2023/09/02 12:30:08;;;;;;;1.30;0.90;;;;;;;35.00;32.84;100546.56;5062924;28;20107;-67
2023/09/02 12:32:34;;;;;;;1.40;1.10;;;;;;;34.94;32.09;100539.59;5061639;28;20043;-67
2023/09/02 12:35:00;;;;;;;1.30;1.08;;;;;;;34.88;33.09;100541.66;5061334;28;20048;-67
2023/09/02 12:37:25;;;;;;;2.08;1.00;;;;;;;33.98;34.35;100550.66;5060721;28;20037;-67
2023/09/02 12:39:51;;;;;;;1.57;0.90;;;;;;;33.73;34.13;100548.63;5044367;28;20401;-66
2023/09/02 12:42:24;;;;;;;1.47;1.00;;;;;;;33.69;33.46;100545.66;5065823;28;20029;-67
2023/09/02 12:44:58;;;;;;;1.90;1.30;;;;;;;33.93;32.70;100555.53;5031756;28;20037;-66
2023/09/02 12:47:25;;;;;;;1.17;0.80;;;;;;;33.09;33.33;100548.19;5057346;28;20045;-67
2023/09/02 12:49:59;;;;;;;1.40;1.05;;;;;;;33.26;33.84;100547.47;5064749;28;20426;-66
2023/09/02 12:52:27;;;;;;;0.93;0.70;;;;;;;33.71;34.01;100548.09;5064141;28;20128;-66
2023/09/02 12:55:01;;;;;;;3.20;1.10;;;;;;;33.01;33.39;100549.75;5064685;28;20071;-66
2023/09/02 12:57:28;;;;;;;1.60;1.00;;;;;;;33.77;33.37;100546.81;5055301;28;20040;-65
2023/09/02 12:59:53;;;;;;;1.98;1.00;;;;;;;34.68;33.23;100547.91;5055109;28;20066;-67
2023/09/02 13:02:19;;;;;;;2.00;1.10;;;;;;;35.06;33.63;100548.00;5055280;28;20107;-67
2023/09/02 13:04:45;;;;;;;1.73;1.20;;;;;;;34.85;32.83;100550.66;5055235;28;20047;-67
2023/09/02 13:07:11;;;;;;;0.75;0.70;;;;;;;35.62;32.13;100554.34;5055023;28;20040;-66
2023/09/02 13:09:38;;;;;;;1.27;0.90;;;;;;;35.58;33.00;100548.63;5054869;28;20029;-66
2023/09/02 13:12:03;;;;;;;;;;;;;;;35.94;30.79;100547.31;5055533;28;20579;-66
2023/09/02 13:14:29;;;;;;;2.75;1.05;;;;;;;35.35;31.33;100545.31;5055130;28;19999;-67
2023/09/02 13:16:56;;;;;;;1.42;0.90;;;;;;;35.22;31.63;100543.56;5054876;28;20115;-66
2023/09/02 13:19:22;;;;;;;1.40;1.00;;;;;;;35.22;31.60;100540.81;5054723;28;20067;-66
2023/09/02 13:21:48;;;;;;;1.48;0.90;;;;;;;35.20;31.31;100545.84;5054834;28;20045;-66
2023/09/02 13:24:16;;;;;;;1.70;0.90;;;;;;;35.45;29.75;100544.13;5054822;28;20037;-66
2023/09/02 13:26:48;;;;;;;2.80;0.90;;;;;;;36.09;30.60;100545.91;5054764;28;20041;-66
2023/09/02 13:29:16;;;;;;;0.80;0.60;;;;;;;35.96;29.93;100541.44;5054366;28;20055;-67
2023/09/02 13:31:44;;;;;;;2.00;1.13;;;;;;;36.38;29.39;100545.84;5054608;28;20028;-67
2023/09/02 13:34:21;;;;;;;0.93;0.80;;;;;;;36.41;29.04;100547.94;5054698;28;20033;-66
2023/09/02 13:36:46;;;;;;;1.55;1.08;;;;;;;36.35;29.23;100543.72;5054619;28;20037;-66
2023/09/02 13:39:13;;;;;;;1.23;0.90;;;;;;;36.81;28.69;100543.81;5054348;28;20039;-67
2023/09/02 13:41:38;;;;;;;2.13;1.00;;;;;;;36.76;28.65;100549.56;5054554;28;20033;-66
2023/09/02 13:44:04;;;;;;;1.20;1.03;;;;;;;36.32;28.40;100544.44;5054452;28;20426;-66
2023/09/02 13:46:31;;;;;;;1.27;1.00;;;;;;;36.68;29.91;100540.19;5054534;28;20045;-66
2023/09/02 13:48:57;;;;;;;0.77;0.70;;;;;;;35.61;30.00;100538.88;5054455;28;20037;-65
2023/09/02 13:51:22;;;;;;;1.17;0.80;;;;;;;34.77;32.25;100549.53;5054174;28;20056;-65
2023/09/02 13:53:48;;;;;;;1.50;0.90;;;;;;;34.04;32.89;100548.56;5053844;28;20513;-67
2023/09/02 13:56:14;;;;;;;1.67;1.03;;;;;;;32.79;33.89;100544.22;5054216;28;20492;-66
2023/09/02 13:58:40;;;;;;;;;;;;;;;32.99;34.19;100546.47;5054606;28;20037;-65
2023/09/02 14:01:06;;;;;;;1.52;1.02;;;;;;;32.09;36.97;100545.63;5054040;28;20003;-66
2023/09/02 14:03:32;;;;;;;1.70;1.00;;;;;;;31.36;36.34;100552.03;5054205;28;20144;-65
2023/09/02 14:06:03;;;;;;;3.03;1.37;;;;;;;31.33;37.55;100547.97;5054150;28;20048;-65
2023/09/02 14:08:36;;;;;;;1.58;1.00;;;;;;;31.25;37.33;100552.25;5054066;28;20386;-65
2023/09/02 14:11:03;;;;;;;1.88;1.10;;;;;;;31.52;35.81;100551.44;5053694;28;20029;-66
2023/09/02 14:13:37;;;;;;;3.72;0.95;;;;;;;31.44;35.36;100557.69;5053984;28;20098;-66
2023/09/02 14:16:03;;;;;;;2.42;0.90;;;;;;;31.40;34.93;100548.38;5053883;28;20082;-66
2023/09/02 14:18:28;;;;;;;1.40;1.10;;;;;;;30.86;36.26;100552.66;5053910;28;20488;-66
2023/09/02 14:20:54;;;;;;;2.87;1.10;;;;;;;30.47;36.56;100553.81;5053614;28;20051;-66
2023/09/02 14:23:19;;;;;;;4.17;1.20;;;;;;;30.47;37.63;100551.06;5053891;28;20041;-66
2023/09/02 14:25:44;;;;;;;7.67;5.30;;;;;;;30.62;36.23;100546.41;5054205;28;20063;-66
2023/09/02 14:28:11;;;;;;;2.08;1.88;;;;;;;30.48;36.22;100554.63;5053802;28;20040;-66
2023/09/02 14:30:37;;;;;;;2.50;1.20;;;;;;;30.16;38.47;100558.09;5052210;28;20033;-66
2023/09/02 14:33:03;;;;;;;1.30;1.10;;;;;;;30.09;38.76;100554.88;5053636;28;20450;-67
2023/09/02 14:35:29;;;;;;;2.67;1.00;;;;;;;29.99;36.51;100559.41;5053567;28;20132;-67
2023/09/02 14:37:54;;;;;;;1.33;1.00;;;;;;;29.89;37.13;100558.72;5053502;28;20319;-66
2023/09/02 14:40:20;;;;;;;2.30;1.10;;;;;;;29.96;37.57;100562.72;5072981;28;20052;-66
2023/09/02 14:42:45;;;;;;;1.05;0.73;;;;;;;29.94;37.79;100561.41;5073532;28;20032;-66
2023/09/02 14:45:11;;;;;;;1.98;1.00;;;;;;;29.98;38.12;100563.25;5073338;28;20036;-66
2023/09/02 14:47:37;;;;;;;1.48;1.02;;;;;;;29.91;38.28;100557.31;5073340;28;20037;-66
2023/09/02 14:50:03;;;;;;;1.55;1.00;;;;;;;29.86;37.93;100557.38;5073041;28;20107;-66
2023/09/02 14:52:32;;;;;;;1.55;0.75;;;;;;;29.71;41.01;100561.13;5073195;28;20440;-66
2023/09/02 14:54:59;;;;;;;2.10;1.20;;;;;;;29.65;40.03;100558.72;5073164;28;20481;-66
2023/09/02 14:57:25;;;;;;;1.33;1.00;;;;;;;29.69;39.71;100568.03;5073006;28;20036;-67
2023/09/02 14:59:51;;;;;;;3.42;1.23;;;;;;;29.59;40.40;100560.72;5072777;28;20496;-67
2023/09/02 15:02:31;;;;;;;1.55;1.08;;;;;;;29.42;40.07;100558.44;5073121;28;20037;-67
2023/09/02 15:05:06;;;;;;;2.50;1.38;;;;;;;29.34;40.72;100550.00;5072313;28;20044;-66
2023/09/02 15:07:31;;;;;;;1.67;1.08;;;;;;;29.22;40.65;100549.59;5072880;28;20549;-66
2023/09/02 15:09:56;;;;;;;1.70;1.15;;;;;;;29.40;42.60;100555.13;5072617;28;20041;-66
2023/09/02 15:12:22;;;;;;;2.60;1.42;;;;;;;29.26;41.04;100545.97;5072851;28;20029;-66
2023/09/02 15:14:52;;;;;;;1.98;1.13;;;;;;;29.35;42.64;100546.16;5072808;28;20044;-66
2023/09/02 15:17:18;;;;;;;1.65;1.02;;;;;;;28.92;41.66;100557.00;5072687;28;20040;-66
2023/09/02 15:19:48;;;;;;;1.50;1.17;;;;;;;28.88;41.73;100551.22;5072387;28;20040;-66
2023/09/02 15:22:14;;;;;;;1.27;1.00;;;;;;;29.00;42.22;100550.06;5072620;28;20148;-66
2023/09/02 15:24:40;;;;;;;3.60;1.27;;;;;;;29.11;42.89;100554.34;5072664;28;20044;-67
2023/09/02 15:27:05;;;;;;;1.38;1.17;;;;;;;29.09;41.76;100556.59;5072686;28;20037;-66
2023/09/02 15:29:31;;;;;;;1.67;1.17;;;;;;;29.05;42.28;100550.03;5072325;28;20033;-66
2023/09/02 15:31:56;;;;;;;1.48;1.15;;;;;;;29.09;42.71;100562.06;5071288;28;20402;-66
2023/09/02 15:34:22;;;;;;;2.25;1.40;;;;;;;29.10;42.85;100559.03;5072432;28;20036;-67
2023/09/02 15:36:48;;;;;;;2.13;1.23;;;;;;;29.00;42.54;100563.78;5072319;28;20403;-66
2023/09/02 15:39:42;;;;;;;1.75;0.88;;;;;;;28.93;42.76;100561.38;5072167;28;20421;-67
2023/09/02 15:42:07;;;;;;;1.58;1.10;;;;;;;28.94;44.59;100560.25;5070603;28;20046;-66
2023/09/02 15:44:33;;;;;;;1.80;1.15;;;;;;;28.76;44.58;100564.50;5072312;28;20131;-66